This is the latest recevied weather packets stored in our database for station/object WA1OUI. If no packets are shown the sender has not sent any weather packets the latest 10 day(s).
| Time | Temp. | Humidity | Pressure | Rain* | Wind** | Luminosity | Snow |
|---|---|---|---|---|---|---|---|
| 1777693359 | 10° C | 72% | 1009.8 hPa | 0 mm | - | 0 W/m² | - |
| 1777693057 | 10° C | 71% | 1009.8 hPa | 0 mm | - | 0 W/m² | - |
| 1777692755 | 10° C | 70% | 1009.8 hPa | 0 mm | - | 0 W/m² | - |
| 1777692451 | 10° C | 70% | 1009.7 hPa | 0 mm | - | 0 W/m² | - |
| 1777692147 | 10° C | 70% | 1009.9 hPa | 0 mm | - | 0 W/m² | - |
| 1777691846 | 10° C | 69% | 1010 hPa | 0 mm | - | 0 W/m² | - |
| 1777691543 | 10° C | 69% | 1010 hPa | 0 mm | - | 0 W/m² | - |
| 1777691242 | 10° C | 69% | 1009.9 hPa | 0 mm | - | 0 W/m² | - |
| 1777690939 | 10° C | 69% | 1009.9 hPa | 0 mm | - | 0 W/m² | - |
| 1777690636 | 10.56° C | 67% | 1010.1 hPa | 0 mm | - | 0 W/m² | - |
| 1777690334 | 10.56° C | 67% | 1010 hPa | 0 mm | - | 0 W/m² | - |
| 1777690032 | 10.56° C | 67% | 1010.1 hPa | 0 mm | - | 0 W/m² | - |
| 1777689730 | 10.56° C | 67% | 1009.9 hPa | 0 mm | - | 0 W/m² | - |
| 1777689427 | 10.56° C | 66% | 1009.8 hPa | 0 mm | - | 0 W/m² | - |
| 1777689124 | 11.11° C | 65% | 1009.8 hPa | 0 mm | - | 0 W/m² | - |
| 1777688821 | 11.11° C | 66% | 1009.8 hPa | 0 mm | - | 0 W/m² | - |
| 1777687913 | 11.67° C | 63% | 1009.8 hPa | 0 mm | - | 0 W/m² | - |
| 1777687610 | 11.67° C | 59% | 1009.9 hPa | 0 mm | - | 0 W/m² | - |
| 1777673973 | 16.11° C | 34% | 1007.7 hPa | 0 mm | - | 29 W/m² | - |
| 1777672154 | 16.67° C | 33% | 1007.7 hPa | 0 mm | - | 50 W/m² | - |
| 1777670029 | 17.22° C | 33% | 1007.7 hPa | 0 mm | - | 57 W/m² | - |
| 1777669726 | 17.22° C | 31% | 1007.8 hPa | 0 mm | - | 63 W/m² | - |
| 1777669423 | 17.22° C | 31% | 1007.9 hPa | 0 mm | - | 49 W/m² | - |
| 1777669119 | 17.22° C | 29% | 1007.7 hPa | 0 mm | - | 97 W/m² | - |
| 1777667905 | 18.33° C | 29% | 1007.6 hPa | 0 mm | - | 49 W/m² | - |
* Rain latest hour (hover to see other rain measurements)
** Current wind speed in m/s (hover to see current wind gust speed)